Time;durP1;ratioP1;P1;durP2;ratioP2;P2;SDS_P1;SDS_P2;PMS_P1;PMS_P2;Temp;Humidity;BMP_temperature;BMP_pressure;BME280_temperature;BME280_humidity;BME280_pressure;Samples;Min_cycle;Max_cycle;Signal;HPM_P1;HPM_P2
2023/10/04 00:00:32;;;;;;;4.60;2.20;;;14.30;99.90;;;;;;5058658;28;20452;-48
2023/10/04 00:02:58;;;;;;;3.10;1.50;;;14.20;99.90;;;;;;5058841;28;20459;-50
2023/10/04 00:05:25;;;;;;;6.83;2.10;;;14.30;99.90;;;;;;5058311;28;20458;-48
2023/10/04 00:07:55;;;;;;;3.93;2.07;;;14.40;99.90;;;;;;5058579;28;20457;-48
2023/10/04 00:10:24;;;;;;;4.73;1.70;;;14.30;99.90;;;;;;5058032;28;20507;-50
2023/10/04 00:12:54;;;;;;;6.57;1.80;;;14.20;99.90;;;;;;5058465;28;20458;-45
2023/10/04 00:15:22;;;;;;;5.67;2.00;;;14.70;99.90;;;;;;5058546;28;20412;-49
2023/10/04 00:17:52;;;;;;;7.20;2.20;;;14.20;99.90;;;;;;5058639;28;20472;-46
2023/10/04 00:20:21;;;;;;;3.60;1.90;;;13.80;99.90;;;;;;5058229;28;20440;-48
2023/10/04 00:22:48;;;;;;;2.57;1.80;;;;;;;;;;5058195;28;20456;-49
2023/10/04 00:25:20;;;;;;;2.30;1.57;;;14.10;99.90;;;;;;5058313;28;20475;-46
2023/10/04 00:27:50;;;;;;;7.13;1.50;;;14.20;99.90;;;;;;5058309;28;20436;-50
2023/10/04 00:30:21;;;;;;;3.70;1.80;;;14.20;99.90;;;;;;5058156;28;20540;-45
2023/10/04 00:32:47;;;;;;;2.53;1.77;;;14.20;99.90;;;;;;5057551;28;20424;-51
2023/10/04 00:35:18;;;;;;;6.83;1.93;;;14.30;99.90;;;;;;5057622;28;20456;-50
2023/10/04 00:37:45;;;;;;;6.20;2.70;;;14.10;99.90;;;;;;5057888;28;20432;-50
2023/10/04 00:40:15;;;;;;;3.13;1.53;;;14.10;99.90;;;;;;5057423;28;20531;-47
2023/10/04 00:42:42;;;;;;;3.80;2.27;;;14.40;99.90;;;;;;5057983;28;20435;-45
2023/10/04 00:45:13;;;;;;;3.60;1.60;;;13.90;99.90;;;;;;5057974;28;20518;-51
2023/10/04 00:47:42;;;;;;;9.40;2.20;;;13.90;99.90;;;;;;5058347;28;20468;-47
2023/10/04 00:50:15;;;;;;;3.90;1.70;;;13.70;99.90;;;;;;5058717;28;20476;-42
2023/10/04 00:52:48;;;;;;;1.87;1.53;;;13.90;99.90;;;;;;5058447;28;20469;-48
2023/10/04 00:55:18;;;;;;;7.60;2.00;;;14.00;99.90;;;;;;5058274;28;20428;-45
2023/10/04 00:57:45;;;;;;;4.80;1.50;;;14.00;99.90;;;;;;5057698;28;20424;-48
2023/10/04 01:00:15;;;;;;;6.23;2.23;;;14.00;99.90;;;;;;5057580;28;20536;-52
2023/10/04 01:02:42;;;;;;;6.07;2.57;;;13.90;99.90;;;;;;5057551;28;20452;-46
2023/10/04 01:05:10;;;;;;;11.60;3.23;;;13.70;99.90;;;;;;5057582;28;20473;-45
2023/10/04 01:07:38;;;;;;;2.87;1.77;;;13.70;99.90;;;;;;5057501;28;20436;-48
2023/10/04 01:10:15;;;;;;;2.50;1.73;;;13.80;99.90;;;;;;5056743;28;20487;-53
2023/10/04 01:12:44;;;;;;;4.50;2.23;;;14.10;99.90;;;;;;5057089;28;20470;-51
2023/10/04 01:17:54;;;;;;;3.60;1.90;;;13.70;99.90;;;;;;5057392;28;20424;-51
2023/10/04 01:20:27;;;;;;;4.07;1.83;;;13.80;99.90;;;;;;5057802;28;20420;-48
2023/10/04 01:23:00;;;;;;;9.20;2.27;;;13.70;99.90;;;;;;5057358;28;20487;-49
2023/10/04 01:25:31;;;;;;;2.80;1.97;;;13.60;99.90;;;;;;5057418;28;20428;-50
2023/10/04 01:27:59;;;;;;;5.10;2.00;;;;;;;;;;5056931;28;20415;-52
2023/10/04 01:30:26;;;;;;;5.40;1.97;;;13.80;99.90;;;;;;5057627;28;20484;-49
2023/10/04 01:32:53;;;;;;;3.37;1.97;;;;;;;;;;5056696;28;20440;-50
2023/10/04 01:35:24;;;;;;;6.60;2.27;;;13.70;99.90;;;;;;5056836;28;20436;-45
2023/10/04 01:37:50;;;;;;;4.93;1.83;;;13.80;99.90;;;;;;5057196;28;20432;-49
2023/10/04 01:40:22;;;;;;;4.67;1.83;;;13.70;99.90;;;;;;5057680;28;20461;-49
2023/10/04 01:42:49;;;;;;;1.60;1.50;;;13.70;99.90;;;;;;5057895;28;20468;-51
2023/10/04 01:45:21;;;;;;;3.13;1.93;;;13.90;99.90;;;;;;5057073;28;20424;-53
2023/10/04 01:47:49;;;;;;;3.70;1.90;;;13.80;99.90;;;;;;5056567;28;20503;-48
2023/10/04 01:50:16;;;;;;;4.87;2.83;;;13.70;99.90;;;;;;5056426;28;20490;-53
2023/10/04 01:52:47;;;;;;;5.53;2.43;;;13.70;99.90;;;;;;5055894;28;20445;-48
2023/10/04 01:55:17;;;;;;;6.30;2.07;;;13.60;99.90;;;;;;5056129;28;20459;-48
2023/10/04 01:57:49;;;;;;;5.27;2.90;;;13.70;99.90;;;;;;5056486;28;20432;-48
2023/10/04 02:00:20;;;;;;;5.77;2.67;;;13.50;99.90;;;;;;5056497;28;20448;-52
2023/10/04 02:02:47;;;;;;;4.80;1.83;;;13.40;99.90;;;;;;5056268;28;20456;-53
2023/10/04 02:05:19;;;;;;;4.07;1.70;;;13.70;99.90;;;;;;5055566;28;20448;-51
2023/10/04 02:07:46;;;;;;;9.00;3.20;;;13.10;99.90;;;;;;5055827;28;20486;-48
2023/10/04 02:10:17;;;;;;;3.90;1.77;;;13.20;99.90;;;;;;5056009;28;20510;-50
2023/10/04 02:12:45;;;;;;;5.13;1.83;;;13.30;99.90;;;;;;5055948;28;20424;-46
2023/10/04 02:15:15;;;;;;;7.43;2.63;;;13.40;99.90;;;;;;5056238;28;20458;-52
2023/10/04 02:17:45;;;;;;;6.03;2.40;;;13.40;99.90;;;;;;5055448;28;20440;-49
2023/10/04 02:20:21;;;;;;;3.13;2.50;;;13.40;99.90;;;;;;5055952;28;20518;-50
2023/10/04 02:22:48;;;;;;;6.43;2.40;;;13.10;99.90;;;;;;5055786;28;20462;-51
2023/10/04 02:25:17;;;;;;;4.57;2.40;;;12.90;99.90;;;;;;5056146;28;20444;-55
2023/10/04 02:27:44;;;;;;;5.77;2.33;;;13.90;99.90;;;;;;5055808;28;20420;-52
2023/10/04 02:30:21;;;;;;;4.43;2.13;;;13.50;99.90;;;;;;5056257;28;20464;-49
2023/10/04 02:32:50;;;;;;;6.80;2.20;;;13.50;99.90;;;;;;5056085;28;20459;-49
2023/10/04 02:35:26;;;;;;;2.90;1.73;;;13.50;99.90;;;;;;5055880;28;20447;-51
2023/10/04 02:37:54;;;;;;;4.10;2.20;;;13.50;99.90;;;;;;5056067;28;20420;-48
2023/10/04 02:40:22;;;;;;;6.40;1.93;;;13.50;99.90;;;;;;5055836;28;20463;-47
2023/10/04 02:42:49;;;;;;;2.30;1.80;;;13.40;99.90;;;;;;5056097;28;20563;-49
2023/10/04 02:45:19;;;;;;;8.93;2.60;;;13.10;99.90;;;;;;5055714;28;20575;-50
2023/10/04 02:47:49;;;;;;;6.00;3.00;;;13.20;99.90;;;;;;5055513;28;20539;-51
2023/10/04 02:50:17;;;;;;;1.93;1.73;;;13.60;99.90;;;;;;5058380;28;20928;-51
2023/10/04 02:52:45;;;;;;;4.40;2.10;;;13.20;99.90;;;;;;5059834;28;20487;-54
2023/10/04 02:55:17;;;;;;;5.50;2.00;;;13.30;99.90;;;;;;5059453;28;20523;-49
2023/10/04 02:57:45;;;;;;;3.43;1.93;;;13.40;99.90;;;;;;5059623;28;20458;-48
2023/10/04 03:00:17;;;;;;;3.50;2.20;;;13.30;99.90;;;;;;5059728;28;20510;-51
2023/10/04 03:02:47;;;;;;;4.03;2.10;;;13.20;99.90;;;;;;5059850;28;20420;-52
2023/10/04 03:05:18;;;;;;;2.97;2.10;;;13.10;99.90;;;;;;5060227;28;20438;-50
2023/10/04 03:07:45;;;;;;;4.37;2.70;;;13.30;99.90;;;;;;5059844;28;20444;-48
2023/10/04 03:10:13;;;;;;;3.73;2.33;;;13.20;99.90;;;;;;5059730;28;20503;-47
2023/10/04 03:12:41;;;;;;;8.17;2.90;;;13.20;99.90;;;;;;5060111;28;20438;-51
2023/10/04 03:15:11;;;;;;;6.73;3.00;;;13.30;99.90;;;;;;5059807;28;20559;-51
2023/10/04 03:17:39;;;;;;;6.03;2.40;;;13.20;99.90;;;;;;5059974;28;20495;-54
2023/10/04 03:20:20;;;;;;;4.33;2.87;;;13.20;99.90;;;;;;5059176;28;20450;-54
2023/10/04 03:22:50;;;;;;;7.50;3.00;;;13.20;99.90;;;;;;5059832;28;20519;-52
2023/10/04 03:25:20;;;;;;;5.13;2.87;;;;;;;;;;5059440;28;20436;-52
2023/10/04 03:27:49;;;;;;;5.73;3.27;;;13.30;99.90;;;;;;5059817;28;20468;-51
2023/10/04 03:30:17;;;;;;;4.70;2.80;;;13.30;99.90;;;;;;5059830;28;20476;-48
2023/10/04 03:32:49;;;;;;;7.63;2.87;;;13.30;99.90;;;;;;5059796;28;20448;-49
2023/10/04 03:35:20;;;;;;;3.60;2.43;;;13.30;99.90;;;;;;5059026;28;20475;-50
2023/10/04 03:37:54;;;;;;;7.87;3.40;;;13.40;99.90;;;;;;5058971;28;20428;-52
2023/10/04 03:40:22;;;;;;;3.63;2.53;;;;;;;;;;5058053;28;20471;-51
2023/10/04 03:42:49;;;;;;;7.70;3.20;;;13.40;99.90;;;;;;5058374;28;20512;-49
2023/10/04 03:45:18;;;;;;;6.43;3.00;;;13.40;99.90;;;;;;5058741;28;20432;-50
2023/10/04 03:47:50;;;;;;;4.87;2.60;;;13.50;99.90;;;;;;5058832;28;20520;-51
2023/10/04 03:50:19;;;;;;;5.77;2.77;;;13.20;99.90;;;;;;5058677;28;20444;-54
2023/10/04 03:52:47;;;;;;;6.27;2.40;;;13.50;99.90;;;;;;5058436;28;20472;-51
2023/10/04 03:55:15;;;;;;;10.07;2.80;;;;;;;;;;5057581;28;20428;-53
2023/10/04 03:57:43;;;;;;;3.70;2.87;;;13.20;99.90;;;;;;5058161;28;20508;-51
2023/10/04 04:00:12;;;;;;;2.43;2.23;;;13.50;99.90;;;;;;5057795;28;20471;-46
2023/10/04 04:02:39;;;;;;;5.00;2.90;;;13.10;99.90;;;;;;5057501;28;20471;-51
2023/10/04 04:05:09;;;;;;;4.80;3.20;;;13.20;99.90;;;;;;5058129;28;20468;-48
2023/10/04 04:07:38;;;;;;;4.03;2.43;;;13.30;99.90;;;;;;5058430;28;20479;-48
2023/10/04 04:10:07;;;;;;;6.00;3.87;;;12.70;99.90;;;;;;5057967;28;20567;-52
2023/10/04 04:12:36;;;;;;;7.00;3.20;;;13.10;99.90;;;;;;5057680;28;20455;-49
2023/10/04 04:15:04;;;;;;;5.57;3.13;;;13.00;99.90;;;;;;5057725;28;20463;-50
2023/10/04 04:17:33;;;;;;;5.17;3.30;;;13.40;99.90;;;;;;5058362;28;20464;-50
2023/10/04 04:20:00;;;;;;;6.93;3.10;;;13.10;99.90;;;;;;5058400;28;20455;-49
2023/10/04 04:22:29;;;;;;;5.27;3.07;;;13.30;99.90;;;;;;5058367;28;20479;-55
2023/10/04 04:25:00;;;;;;;15.77;3.47;;;13.20;99.90;;;;;;5058084;28;20488;-50
2023/10/04 04:27:27;;;;;;;5.03;2.87;;;;;;;;;;5057869;28;20424;-50
2023/10/04 04:29:54;;;;;;;5.50;2.80;;;13.30;99.90;;;;;;5057972;28;20468;-51
2023/10/04 04:32:26;;;;;;;6.00;2.97;;;13.10;99.90;;;;;;5057451;28;20448;-54
2023/10/04 04:34:53;;;;;;;5.20;3.23;;;13.20;99.90;;;;;;5058119;28;20429;-54
2023/10/04 04:37:23;;;;;;;5.90;2.77;;;13.00;99.90;;;;;;5057907;28;20444;-51
2023/10/04 04:39:52;;;;;;;6.83;3.40;;;;;;;;;;5057249;28;20544;-54
2023/10/04 04:42:29;;;;;;;7.00;3.00;;;12.90;99.90;;;;;;5057980;28;20482;-50
2023/10/04 04:44:56;;;;;;;7.73;3.70;;;13.20;99.90;;;;;;5057514;28;20416;-54
2023/10/04 04:47:24;;;;;;;10.73;3.43;;;13.30;99.90;;;;;;5056974;28;20495;-52
2023/10/04 04:49:59;;;;;;;7.73;3.47;;;13.10;99.90;;;;;;5057378;28;20475;-50
2023/10/04 04:52:30;;;;;;;5.20;3.10;;;12.90;99.90;;;;;;5057227;28;20455;-48
2023/10/04 04:54:58;;;;;;;5.07;3.37;;;13.50;99.90;;;;;;5056699;28;20468;-51
2023/10/04 04:57:27;;;;;;;4.70;4.23;;;13.10;99.90;;;;;;5057446;28;20448;-49
2023/10/04 04:59:56;;;;;;;7.83;2.87;;;12.90;99.90;;;;;;5057597;28;20424;-49
2023/10/04 05:02:25;;;;;;;12.43;3.50;;;;;;;;;;5057892;28;20416;-51
2023/10/04 05:04:53;;;;;;;7.87;2.87;;;;;;;;;;5057518;28;20440;-46
2023/10/04 05:07:19;;;;;;;4.80;3.00;;;13.00;99.90;;;;;;5057254;28;20475;-53
2023/10/04 05:09:46;;;;;;;9.60;4.43;;;12.90;99.90;;;;;;5056899;28;20494;-49
2023/10/04 05:12:13;;;;;;;3.43;2.30;;;12.90;99.90;;;;;;5056779;28;20433;-49
2023/10/04 05:14:41;;;;;;;7.00;2.80;;;13.30;99.90;;;;;;5056815;28;20432;-48
2023/10/04 05:17:09;;;;;;;4.13;2.30;;;;;;;;;;5056972;28;20483;-51
2023/10/04 05:19:36;;;;;;;12.00;6.37;;;12.70;99.90;;;;;;5056264;28;20820;-52
2023/10/04 05:22:03;;;;;;;9.50;4.67;;;13.40;99.90;;;;;;5056845;28;20479;-50
2023/10/04 05:24:37;;;;;;;4.27;3.47;;;12.80;99.90;;;;;;5056294;28;20484;-48
2023/10/04 05:27:05;;;;;;;10.10;3.00;;;12.80;99.90;;;;;;5056228;28;20459;-48
2023/10/04 05:29:32;;;;;;;4.60;3.00;;;12.90;99.90;;;;;;5056040;28;20527;-47
2023/10/04 05:32:00;;;;;;;3.73;3.10;;;13.10;99.90;;;;;;5056467;28;20482;-50
2023/10/04 05:34:27;;;;;;;4.07;2.70;;;13.10;99.90;;;;;;5055264;28;20463;-46
2023/10/04 05:36:54;;;;;;;6.97;3.27;;;13.00;99.90;;;;;;5056056;28;20498;-48
2023/10/04 05:39:21;;;;;;;4.80;2.80;;;13.10;99.90;;;;;;5039954;28;20889;-49
2023/10/04 05:41:48;;;;;;;5.53;2.73;;;13.10;99.90;;;;;;5034705;28;20451;-50
2023/10/04 05:44:15;;;;;;;8.10;2.93;;;13.00;99.90;;;;;;5035055;28;20548;-52
2023/10/04 05:46:44;;;;;;;7.67;3.13;;;13.20;99.90;;;;;;5034757;28;20754;-51
2023/10/04 05:49:12;;;;;;;6.23;2.83;;;13.30;99.90;;;;;;5034973;28;20890;-52
2023/10/04 05:51:39;;;;;;;3.57;2.30;;;12.90;99.90;;;;;;5034846;28;20494;-51
2023/10/04 05:54:06;;;;;;;5.83;3.10;;;13.80;99.90;;;;;;5034860;28;20450;-51
2023/10/04 05:56:34;;;;;;;8.83;5.03;;;13.20;99.90;;;;;;5034950;28;20610;-48
2023/10/04 05:59:01;;;;;;;7.00;2.90;;;13.40;99.90;;;;;;5035219;28;20483;-49
2023/10/04 06:01:28;;;;;;;7.73;3.33;;;13.30;99.90;;;;;;5035133;28;20460;-50
2023/10/04 06:03:55;;;;;;;5.67;2.40;;;13.30;99.90;;;;;;5034840;28;20448;-52
2023/10/04 06:06:24;;;;;;;5.20;3.03;;;13.20;99.90;;;;;;5034750;28;20530;-52
2023/10/04 06:08:54;;;;;;;3.90;2.90;;;13.30;99.90;;;;;;5034739;28;20520;-51
2023/10/04 06:11:21;;;;;;;2.83;2.30;;;13.20;99.90;;;;;;5034692;28;20496;-48
2023/10/04 06:13:49;;;;;;;3.43;2.37;;;;;;;;;;5034757;28;20531;-49
2023/10/04 06:16:19;;;;;;;6.53;2.90;;;13.30;99.90;;;;;;5034406;28;20458;-52
2023/10/04 06:18:48;;;;;;;4.33;2.07;;;;;;;;;;5034886;28;20468;-52
2023/10/04 06:21:16;;;;;;;3.40;2.57;;;13.40;99.90;;;;;;5035186;28;20813;-51
2023/10/04 06:23:44;;;;;;;3.73;2.33;;;13.40;99.90;;;;;;5035648;28;20459;-50
2023/10/04 06:26:16;;;;;;;3.60;2.37;;;13.30;99.90;;;;;;5039256;28;20471;-49
2023/10/04 06:28:43;;;;;;;6.33;2.70;;;13.50;99.90;;;;;;5039974;28;20432;-49
2023/10/04 06:31:10;;;;;;;3.93;2.73;;;13.40;99.90;;;;;;5039126;28;20487;-49
2023/10/04 06:33:40;;;;;;;7.93;2.43;;;13.40;99.90;;;;;;5038773;28;20444;-52
2023/10/04 06:36:08;;;;;;;6.10;2.57;;;;;;;;;;5039561;28;20534;-51
2023/10/04 06:38:35;;;;;;;4.37;1.97;;;13.50;99.90;;;;;;5039779;28;20736;-51
2023/10/04 06:41:04;;;;;;;3.90;2.80;;;14.00;99.90;;;;;;5038682;28;20448;-48
2023/10/04 06:43:31;;;;;;;6.43;2.67;;;13.70;99.90;;;;;;5038802;28;20478;-49
2023/10/04 06:45:57;;;;;;;3.77;2.47;;;13.80;99.90;;;;;;5039334;28;20522;-46
2023/10/04 06:48:25;;;;;;;6.80;2.50;;;13.70;99.90;;;;;;5038700;28;20543;-48
2023/10/04 06:50:52;;;;;;;4.60;2.43;;;14.10;99.90;;;;;;5038703;28;20550;-44
2023/10/04 06:53:21;;;;;;;4.90;2.87;;;14.40;99.90;;;;;;5038557;28;20538;-51
2023/10/04 06:55:48;;;;;;;6.30;2.70;;;14.40;99.90;;;;;;5038743;28;20546;-48
2023/10/04 06:58:16;;;;;;;11.67;2.80;;;14.10;99.90;;;;;;5038065;28;20483;-51
2023/10/04 07:00:43;;;;;;;1.93;1.73;;;14.30;99.90;;;;;;5038159;28;20460;-52
2023/10/04 07:03:12;;;;;;;6.73;2.80;;;14.20;99.90;;;;;;5037979;28;20456;-53
2023/10/04 07:05:40;;;;;;;4.63;2.33;;;14.30;99.90;;;;;;5038258;28;20476;-53
2023/10/04 07:08:12;;;;;;;5.43;2.80;;;14.50;99.90;;;;;;5038433;28;20507;-52
2023/10/04 07:10:39;;;;;;;4.60;2.20;;;14.50;99.90;;;;;;5038294;28;20795;-52
2023/10/04 07:13:07;;;;;;;5.63;2.23;;;;;;;;;;5037849;28;20439;-52
2023/10/04 07:15:39;;;;;;;10.23;3.20;;;14.50;99.90;;;;;;5037829;28;20502;-52
2023/10/04 07:18:07;;;;;;;5.07;2.90;;;14.50;99.90;;;;;;5037966;28;20474;-54
2023/10/04 07:20:35;;;;;;;6.63;3.30;;;14.60;99.90;;;;;;5038087;28;20519;-51
2023/10/04 07:23:05;;;;;;;5.13;2.67;;;14.70;99.90;;;;;;5038053;28;20802;-54
2023/10/04 07:25:34;;;;;;;4.17;1.93;;;14.60;99.90;;;;;;5038155;28;20440;-53
2023/10/04 07:28:02;;;;;;;1.70;1.40;;;14.50;99.90;;;;;;5038083;28;20807;-53
2023/10/04 07:30:30;;;;;;;6.13;2.50;;;14.40;99.90;;;;;;5038069;28;20865;-53
2023/10/04 07:32:59;;;;;;;3.87;2.10;;;14.50;99.90;;;;;;5037537;28;20919;-51
2023/10/04 07:35:27;;;;;;;9.20;3.13;;;14.60;99.90;;;;;;5036399;28;20972;-50
2023/10/04 07:37:55;;;;;;;7.03;2.20;;;14.60;99.90;;;;;;5037850;28;20467;-48
2023/10/04 07:40:23;;;;;;;2.53;1.77;;;14.90;99.90;;;;;;5037460;28;20448;-50
2023/10/04 07:42:52;;;;;;;8.30;2.97;;;15.00;99.90;;;;;;5037692;28;20936;-51
2023/10/04 07:45:20;;;;;;;3.43;3.07;;;15.00;99.90;;;;;;5037220;28;20446;-52
2023/10/04 07:47:47;;;;;;;7.07;2.10;;;15.00;99.90;;;;;;5038070;28;20889;-52
2023/10/04 07:50:22;;;;;;;9.10;2.90;;;15.10;99.90;;;;;;5037295;28;20479;-52
2023/10/04 07:52:50;;;;;;;4.50;2.97;;;15.00;99.90;;;;;;5037517;28;20436;-52
2023/10/04 07:55:18;;;;;;;8.97;2.07;;;15.00;99.90;;;;;;5037397;28;20484;-51
2023/10/04 07:57:46;;;;;;;4.70;2.23;;;15.00;99.90;;;;;;5037237;28;20452;-52
2023/10/04 08:00:14;;;;;;;3.60;2.37;;;15.10;99.90;;;;;;5037163;28;20450;-48
2023/10/04 08:02:46;;;;;;;5.80;2.07;;;14.70;99.90;;;;;;5037120;28;20452;-49
2023/10/04 08:05:19;;;;;;;7.33;2.23;;;15.30;99.90;;;;;;5036912;28;20437;-52
2023/10/04 08:07:46;;;;;;;5.03;1.97;;;15.20;99.90;;;;;;5036673;28;20514;-48
2023/10/04 08:10:14;;;;;;;3.60;1.63;;;15.30;99.90;;;;;;5037645;28;20534;-54
2023/10/04 08:12:41;;;;;;;4.77;1.90;;;15.40;99.90;;;;;;5037251;28;20483;-49
2023/10/04 08:15:13;;;;;;;8.57;2.30;;;15.50;99.90;;;;;;5036829;28;20522;-50
2023/10/04 08:17:41;;;;;;;7.43;3.20;;;15.40;99.90;;;;;;5036394;28;20946;-51
2023/10/04 08:20:09;;;;;;;4.13;2.20;;;16.00;99.90;;;;;;5036669;28;20472;-49
2023/10/04 08:22:38;;;;;;;5.47;2.90;;;15.60;99.90;;;;;;5036410;28;20502;-54
2023/10/04 08:25:06;;;;;;;4.40;2.40;;;15.70;99.90;;;;;;5036227;28;20465;-52
2023/10/04 08:27:34;;;;;;;9.30;2.57;;;;;;;;;;5036671;28;20507;-50
2023/10/04 08:30:03;;;;;;;5.20;2.50;;;16.00;99.90;;;;;;5036652;28;20452;-54
2023/10/04 08:32:30;;;;;;;2.97;2.20;;;15.90;99.90;;;;;;5036005;28;20545;-53
2023/10/04 08:34:57;;;;;;;3.60;2.20;;;;;;;;;;5036078;28;20447;-54
2023/10/04 08:37:24;;;;;;;4.60;2.50;;;16.20;99.90;;;;;;5036218;28;20858;-51
2023/10/04 08:39:52;;;;;;;10.40;2.90;;;16.20;99.90;;;;;;5035910;28;20524;-53
2023/10/04 08:42:19;;;;;;;10.20;2.73;;;16.80;99.90;;;;;;5036345;28;20449;-51
2023/10/04 08:44:47;;;;;;;3.83;2.60;;;;;;;;;;5036162;28;20487;-50
2023/10/04 08:47:14;;;;;;;6.20;1.80;;;16.80;99.90;;;;;;5035600;28;20486;-52
2023/10/04 08:49:55;;;;;;;5.20;3.60;;;16.90;99.90;;;;;;5035677;28;21005;-53
2023/10/04 08:52:35;;;;;;;7.20;2.30;;;16.90;99.90;;;;;;5035674;28;20463;-47
2023/10/04 08:55:07;;;;;;;7.00;2.80;;;16.60;99.90;;;;;;5035769;28;20519;-49
2023/10/04 08:57:38;;;;;;;4.10;1.57;;;17.20;99.90;;;;;;5037010;28;20424;-47
2023/10/04 09:00:13;;;;;;;11.63;2.40;;;17.60;99.90;;;;;;5035594;28;20499;-52
2023/10/04 09:02:43;;;;;;;5.43;1.93;;;17.50;99.90;;;;;;5035826;28;20472;-49
2023/10/04 09:05:13;;;;;;;3.13;2.23;;;17.20;99.90;;;;;;5035806;28;20515;-56
2023/10/04 09:07:40;;;;;;;4.03;2.00;;;16.90;99.90;;;;;;5036000;28;20479;-49
2023/10/04 09:10:10;;;;;;;13.70;3.40;;;16.60;99.90;;;;;;5036937;28;20466;-51
2023/10/04 09:12:37;;;;;;;3.17;2.10;;;16.70;99.90;;;;;;5036692;28;20968;-54
2023/10/04 09:15:04;;;;;;;4.30;2.57;;;16.70;99.90;;;;;;5037198;28;20496;-47
2023/10/04 09:17:46;;;;;;;8.37;2.60;;;16.60;99.90;;;;;;5037248;28;20451;-46
2023/10/04 09:20:16;;;;;;;12.67;4.83;;;16.50;99.90;;;;;;5036869;28;20443;-50
2023/10/04 09:22:43;;;;;;;3.00;2.03;;;16.40;99.90;;;;;;5037441;28;20527;-49
2023/10/04 09:25:11;;;;;;;6.40;2.67;;;16.30;99.90;;;;;;5036756;28;20527;-45
2023/10/04 09:27:41;;;;;;;3.90;2.37;;;17.00;99.90;;;;;;5037021;28;20464;-51
2023/10/04 09:30:25;;;;;;;8.07;3.07;;;16.50;99.90;;;;;;5036543;28;20491;-50
2023/10/04 09:32:52;;;;;;;4.97;2.07;;;;;;;;;;5036478;28;20553;-51
2023/10/04 09:35:19;;;;;;;7.60;2.50;;;16.10;99.90;;;;;;5037005;28;20493;-52
2023/10/04 09:37:47;;;;;;;10.10;2.83;;;16.30;99.90;;;;;;5036937;28;20467;-55
2023/10/04 09:40:17;;;;;;;7.50;3.13;;;16.00;99.90;;;;;;5036588;28;20452;-51
2023/10/04 09:42:49;;;;;;;6.03;2.93;;;15.80;99.90;;;;;;5036890;28;20429;-54
2023/10/04 09:45:16;;;;;;;3.90;2.50;;;;;;;;;;5036583;28;20844;-51
2023/10/04 09:47:43;;;;;;;4.63;2.20;;;16.90;99.90;;;;;;5036443;28;20444;-50
2023/10/04 09:50:12;;;;;;;6.87;3.03;;;17.00;99.90;;;;;;5036495;28;20475;-51
2023/10/04 09:52:39;;;;;;;4.90;2.57;;;17.70;99.90;;;;;;5036387;28;20506;-50
2023/10/04 09:55:08;;;;;;;5.30;2.33;;;17.80;99.90;;;;;;5035703;28;20949;-52
2023/10/04 09:57:38;;;;;;;5.40;2.47;;;17.50;99.90;;;;;;5036458;28;20834;-52
2023/10/04 10:00:10;;;;;;;6.83;2.83;;;17.80;99.90;;;;;;5036015;28;20762;-50
2023/10/04 10:02:39;;;;;;;5.83;2.13;;;17.60;99.90;;;;;;5036166;28;20464;-53
2023/10/04 10:05:09;;;;;;;4.50;2.40;;;17.90;99.90;;;;;;5036060;28;20495;-51
2023/10/04 10:07:38;;;;;;;6.43;2.77;;;18.10;99.90;;;;;;5035641;28;20628;-52
2023/10/04 10:10:10;;;;;;;5.93;2.73;;;17.80;99.90;;;;;;5035746;28;20471;-46
2023/10/04 10:12:40;;;;;;;2.67;1.60;;;17.30;99.90;;;;;;5035571;28;20579;-49
2023/10/04 10:15:08;;;;;;;5.60;3.37;;;17.90;99.90;;;;;;5035563;28;20470;-52
2023/10/04 10:17:35;;;;;;;4.00;2.27;;;18.10;99.90;;;;;;5035503;28;20451;-53
2023/10/04 10:20:05;;;;;;;4.10;2.10;;;18.60;99.90;;;;;;5035423;28;20424;-56
2023/10/04 10:22:32;;;;;;;2.93;1.83;;;18.10;99.90;;;;;;5035881;28;20904;-48
2023/10/04 10:25:14;;;;;;;3.00;2.33;;;17.70;99.90;;;;;;5035700;28;20448;-51
2023/10/04 10:27:43;;;;;;;10.80;2.50;;;17.80;99.90;;;;;;5035442;28;20432;-52
2023/10/04 10:30:12;;;;;;;8.03;2.33;;;18.00;99.90;;;;;;5035525;28;20472;-51
2023/10/04 10:32:50;;;;;;;3.90;1.87;;;18.70;99.90;;;;;;5035430;28;20541;-46
2023/10/04 10:35:52;;;;;;;3.97;2.10;;;18.40;99.90;;;;;;5035350;28;20470;-50
2023/10/04 10:38:44;;;;;;;6.83;3.10;;;18.10;99.90;;;;;;5035277;28;20448;-47
2023/10/04 10:42:02;;;;;;;5.60;2.40;;;17.90;99.90;;;;;;5035371;28;20467;-54
2023/10/04 10:44:37;;;;;;;4.13;2.37;;;18.00;99.90;;;;;;5035519;28;20440;-47
2023/10/04 10:47:07;;;;;;;3.67;2.00;;;17.20;99.90;;;;;;5035054;28;20471;-50
2023/10/04 10:49:42;;;;;;;4.60;2.30;;;17.40;99.90;;;;;;5035627;28;20578;-53
2023/10/04 10:52:10;;;;;;;2.07;1.87;;;17.20;99.90;;;;;;5035384;28;20483;-52
2023/10/04 10:54:37;;;;;;;8.23;2.23;;;17.10;99.90;;;;;;5035827;28;20531;-49
2023/10/04 10:57:05;;;;;;;8.33;3.10;;;17.30;99.90;;;;;;5035071;28;20448;-49
2023/10/04 10:59:34;;;;;;;4.50;2.67;;;17.40;99.90;;;;;;5035317;28;20537;-49
2023/10/04 11:02:04;;;;;;;6.73;3.17;;;17.40;99.90;;;;;;5035003;28;20441;-48
2023/10/04 11:04:31;;;;;;;5.60;2.33;;;17.40;99.90;;;;;;5035491;28;20490;-49
2023/10/04 11:06:58;;;;;;;7.33;2.10;;;;;;;;;;5035260;28;20508;-52
2023/10/04 11:09:26;;;;;;;5.03;2.27;;;17.30;99.90;;;;;;5034792;28;20968;-50
2023/10/04 11:11:54;;;;;;;5.60;3.00;;;17.40;99.90;;;;;;5038838;28;20480;-47
2023/10/04 11:14:21;;;;;;;5.13;3.00;;;17.40;99.90;;;;;;5038719;28;20539;-52
2023/10/04 11:16:51;;;;;;;4.90;2.30;;;17.40;99.90;;;;;;5039245;28;20444;-49
2023/10/04 11:19:18;;;;;;;6.33;2.23;;;17.60;99.90;;;;;;5038714;28;20440;-51
2023/10/04 11:21:46;;;;;;;9.33;3.57;;;17.70;99.90;;;;;;5038812;28;20533;-51
2023/10/04 11:24:15;;;;;;;9.43;3.13;;;17.70;99.90;;;;;;5039108;28;20439;-49
2023/10/04 11:26:43;;;;;;;3.03;2.10;;;18.00;99.90;;;;;;5038938;28;20491;-50
2023/10/04 11:29:10;;;;;;;5.47;2.70;;;17.20;99.90;;;;;;5038721;28;20791;-50
2023/10/04 11:31:38;;;;;;;2.50;2.00;;;17.20;99.90;;;;;;5038086;28;20515;-49
2023/10/04 11:34:06;;;;;;;7.13;3.37;;;17.20;99.90;;;;;;5038512;28;20729;-50
2023/10/04 11:36:37;;;;;;;8.70;2.50;;;17.10;99.90;;;;;;5039058;28;20440;-53
2023/10/04 11:39:12;;;;;;;7.80;2.60;;;16.90;99.90;;;;;;5039052;28;20472;-51
2023/10/04 11:41:39;;;;;;;2.63;2.20;;;16.70;99.90;;;;;;5039192;28;20923;-49
2023/10/04 11:44:07;;;;;;;7.50;2.57;;;17.20;99.90;;;;;;5038554;28;20456;-49
2023/10/04 11:46:53;;;;;;;4.70;2.17;;;17.30;99.90;;;;;;5038545;28;20451;-47
2023/10/04 11:49:21;;;;;;;3.87;2.40;;;17.30;99.90;;;;;;5037842;28;20472;-51
2023/10/04 11:51:50;;;;;;;3.43;2.20;;;17.50;99.90;;;;;;5038292;28;20506;-55
2023/10/04 11:54:17;;;;;;;5.27;2.73;;;17.40;99.90;;;;;;5038667;28;20467;-49
2023/10/04 11:56:44;;;;;;;7.57;2.90;;;;;;;;;;5038288;28;20834;-53
2023/10/04 11:59:13;;;;;;;7.53;2.60;;;18.00;99.90;;;;;;5038488;28;20437;-50
2023/10/04 12:01:44;;;;;;;4.90;1.70;;;17.90;99.90;;;;;;5037847;28;20472;-48
2023/10/04 12:04:13;;;;;;;7.07;2.70;;;17.70;99.90;;;;;;5037541;28;20495;-50
2023/10/04 12:06:44;;;;;;;12.83;2.60;;;17.50;99.90;;;;;;5038167;28;20464;-51
2023/10/04 12:09:11;;;;;;;10.33;3.00;;;16.90;99.90;;;;;;5037990;28;20440;-48
2023/10/04 12:11:39;;;;;;;4.10;2.20;;;17.40;99.90;;;;;;5037511;28;20506;-49
2023/10/04 12:14:09;;;;;;;6.33;2.40;;;17.40;99.90;;;;;;5037713;28;20452;-51
2023/10/04 12:16:38;;;;;;;5.43;2.50;;;17.70;99.90;;;;;;5037786;28;20850;-51
2023/10/04 12:19:05;;;;;;;4.73;2.70;;;;;;;;;;5038271;28;20460;-54
2023/10/04 12:21:33;;;;;;;9.10;3.63;;;;;;;;;;5037031;28;20502;-45
2023/10/04 12:24:03;;;;;;;3.97;2.80;;;17.60;99.90;;;;;;5037635;28;20495;-47
2023/10/04 12:26:30;;;;;;;4.83;2.90;;;17.60;99.90;;;;;;5037721;28;20594;-49
2023/10/04 12:28:57;;;;;;;4.23;2.30;;;17.80;99.90;;;;;;5037098;28;20460;-49
2023/10/04 12:31:24;;;;;;;6.20;2.37;;;18.10;99.90;;;;;;5037351;28;20428;-52
2023/10/04 12:33:55;;;;;;;4.50;2.70;;;18.10;99.90;;;;;;5037084;28;20480;-51
2023/10/04 12:36:22;;;;;;;7.10;2.30;;;17.80;99.90;;;;;;5037111;28;20874;-52
2023/10/04 12:38:50;;;;;;;5.43;2.27;;;18.20;99.90;;;;;;5037622;28;20452;-53
2023/10/04 12:41:19;;;;;;;8.93;2.40;;;18.40;99.90;;;;;;5037070;28;20506;-49
2023/10/04 12:43:47;;;;;;;5.20;3.60;;;18.40;99.90;;;;;;5037349;28;20436;-48
2023/10/04 12:46:15;;;;;;;6.07;2.80;;;18.60;99.90;;;;;;5036734;28;20554;-48
2023/10/04 12:48:42;;;;;;;10.03;2.93;;;18.60;99.90;;;;;;5036885;28;20433;-48
2023/10/04 12:51:09;;;;;;;9.50;2.77;;;;;;;;;;5036618;28;20531;-51
2023/10/04 12:53:36;;;;;;;10.30;3.00;;;;;;;;;;5036565;28;20515;-50
2023/10/04 12:56:03;;;;;;;4.33;2.53;;;18.90;99.90;;;;;;5036720;28;20441;-51
2023/10/04 12:58:33;;;;;;;4.23;2.23;;;18.70;99.90;;;;;;5036555;28;21015;-53
2023/10/04 13:01:04;;;;;;;7.40;2.53;;;19.00;99.90;;;;;;5036822;28;20448;-55
2023/10/04 13:03:32;;;;;;;8.83;2.50;;;18.60;99.90;;;;;;5036234;28;20464;-54
2023/10/04 13:05:59;;;;;;;5.33;2.37;;;19.10;99.90;;;;;;5036545;28;20424;-52
2023/10/04 13:08:26;;;;;;;5.60;2.37;;;19.10;99.90;;;;;;5036245;28;20905;-50